Airfield :







YOU CAN JOIN US ON...

 
LOGIN :

Register | Disclaimer

   EN    FR    IT 

 









Legend :    VFR   Marginal VFR   IFR   Intensive IFR   Very Intensive IFR
Visi :
Ceiling :
>= 8 km
>= 3000ft
5 to 8 km
1000 to 3000 ft
1500m to 5 km
500 to 1000 ft
800 to 1500m
200 to 500 ft
< 800m
< 200 ft
Symbols :   Thunderstorms  Fog  Heavy snow  Heavy precipitations  Wind > 20 kt







- Airport Elevation : 577 ft


KVSF - Hartness State (Springfield)

CURRENT METAR :
  • 151954Z AUTO VRB06KT 10SM CLR 27/11 A3002 RMK AO2 SLP164 T02670106

EXPIRED METARs :
  • 151854Z AUTO 26010G16KT 10SM SCT055 27/11 A3003 RMK AO2 SLP166 T02670106
  • 151754Z AUTO 31010KT 10SM BKN050 27/12 A3003 RMK AO2 SLP169 T02670117 10272 20189 58008

TAF N/A
KZBW FIR / North America



MET'MAP, your aeronautical weather chart ! - Copyright ORBIFLY December 2007 - Disclaimer

ORBIFLY MET'MAP TEAM :

Programming & Development : Alexandra Zaïnal
Concept & Development : Baudouin d'Aumeries
Co-Development & Prog : Marc-Olivier Méhu
Technical & hardware support : Manuel Goepfert

Contact : metmap@orbifly.com




SOURCES & CREDITS :

   NOAA